Charter Quote
Worldwide +1-877-727-2538 Call
Select Language Lang
SAFETY RELIABILITY EXPERIENCE

Private Jet Charter Services - Tianhe (ZHHH)

Paramount Business Jets offers private jet charter flights and luxury airliner charters to and from Tianhe.

AIRPORT INFORMATION
ICAOZHHH
IATAWUH
LOCATIONWuhan, China
FACILITY TYPEAIRPORT

At Paramount Business Jets you can hire chartered private jets to and from Tianhe with as little as 4 hours of notice. All flights booked via Paramount Business Jets are operated by certified direct air carriers that meet and exceed the FAA part 135 and 121 protocol or a foreign equivalent safety authority. Furthermore, Paramount Business Jets subscribes to ARGUS for their third party safety checks of operators, aircraft, and crews prior each and every flight to and from Tianhe and worldwide.

  • Quote a trip using Tianhe or call us 24/7 - 365 days a year at +1-877-727-2538.
Questions? Call +1-877-727-2538

METAR Weather Data at Tianhe, ZHHH, WUH

STATIONZHHH
OBSERVEDMon Jul 22, 10:00 UTC
NOWMon Jul 22, 10:13 UTC
AGE13 min ago
WINDE at 7 mph
VISIBILITY16 miles
CLOUDSpartly cloudy
TEMP95°F (35°C)
DEWPT79°F (26°C)
HUMIDITY60%
HEAT INDEX113°F (45°C)
BAROMETER998 hPa (29.47 in Hg)
METARZHHH 221000Z 08003MPS 030V130 9999 FEW030CB 35/26 Q0998 NOSIG

Call us on +1-877-727-2538 (24 Hours) to Hire a Private Jet or Get a Quick Quote.

Find Airports Near any Location

Processing
...